Air Resources Laboratory banner image
Air Resources Laboratory web site National Oceanic and Atmospheric Administration (NOAA)

pr metar


TJSJ 121756Z 06009KT 10SM FEW025 FEW036 SCT042 29/23 A2987 RMK AO2 SLP114
 T02940233 10300 20256 58028=
TJSJ 121756Z 06009KT 10SM FEW025 FEW036 SCT042 29/23 A2987=